Terminal Aerodrome Forecast
Issued by NWS Wakefield, VA

Home | Current Version | Previous Version | Text Only | Print | Product List | Glossary On
Versions: 1 2 3 4 5 6 7 8 9 10 11 12 13 14 15 16 17
000
FTUS41 KAKQ 271200 AAA
TAFSBY
TAF AMD
KSBY 271258Z 2713/2812 35005KT 5SM HZ BKN060
     FM271500 35008KT P6SM SCT060
     FM280500 36004KT P6SM BKN200=

USA.gov is the U.S. government's official web portal to all federal, state and local government web resources and services.